Time;durP1;ratioP1;P1;durP2;ratioP2;P2;SDS_P1;SDS_P2;PMS_P1;PMS_P2;Temp;Humidity;BMP_temperature;BMP_pressure;BME280_temperature;BME280_humidity;BME280_pressure;Samples;Min_cycle;Max_cycle;Signal;HPM_P1;HPM_P2
2022/01/08 00:00:29;;;;;;;3.20;1.23;;;1.00;99.90;;;0.05;100.00;96761.00;5021535;28;20591;-88
2022/01/08 00:02:56;;;;;;;2.35;1.05;;;1.00;99.90;;;0.12;100.00;96754.91;5007023;28;20057;-89
2022/01/08 00:05:21;;;;;;;1.45;0.90;;;1.00;99.90;;;0.06;100.00;96741.13;5005046;28;20145;-89
2022/01/08 00:07:48;;;;;;;2.25;0.93;;;1.00;99.90;;;0.05;100.00;96726.44;5030872;28;20541;-88
2022/01/08 00:10:14;;;;;;;2.45;0.80;;;1.10;99.90;;;0.12;100.00;96722.94;4995832;28;20025;-88
2022/01/08 00:12:40;;;;;;;1.92;0.90;;;1.20;99.90;;;0.10;100.00;96709.13;4980858;28;20663;-88
2022/01/08 00:15:07;;;;;;;3.28;1.08;;;1.20;99.90;;;0.24;100.00;96732.38;5005816;28;20421;-88
2022/01/08 00:17:34;;;;;;;1.98;0.88;;;1.20;99.90;;;0.13;100.00;96716.88;5006947;28;20018;-87
2022/01/08 00:20:01;;;;;;;2.80;0.80;;;1.20;99.90;;;0.36;100.00;96724.50;4981908;28;20463;-88
2022/01/08 00:22:26;;;;;;;1.48;0.70;;;1.30;99.90;;;0.30;100.00;96691.66;4980341;28;20172;-89
2022/01/08 00:24:52;;;;;;;3.08;0.98;;;1.40;99.90;;;0.48;100.00;96700.19;4982381;28;20035;-89
2022/01/08 00:27:20;;;;;;;2.90;0.80;;;1.40;99.90;;;0.60;100.00;96704.44;5003948;28;20183;-88
2022/01/08 00:29:46;;;;;;;1.42;0.73;;;1.50;99.90;;;0.71;100.00;96687.88;4994523;28;20033;-89
2022/01/08 00:32:13;;;;;;;3.17;0.90;;;1.60;99.90;;;0.79;100.00;96680.03;4968215;28;20034;-89
2022/01/08 00:34:39;;;;;;;2.22;1.00;;;1.70;99.90;;;0.82;100.00;96684.31;5006002;28;20477;-90
2022/01/08 00:37:06;;;;;;;1.80;1.00;;;1.80;99.90;;;0.80;100.00;96665.31;5002631;28;20057;-89
2022/01/08 00:39:32;;;;;;;1.70;0.93;;;1.80;99.90;;;1.07;100.00;96697.91;4988685;28;24360;-89
2022/01/08 00:41:58;;;;;;;1.63;0.88;;;1.90;99.90;;;1.04;99.50;96690.13;4994105;28;20515;-89
2022/01/08 00:44:24;;;;;;;1.33;0.82;;;2.00;99.90;;;1.12;99.44;96690.91;4995833;28;20062;-89
2022/01/08 00:46:50;;;;;;;0.95;0.80;;;2.00;99.90;;;1.12;99.78;96675.34;4982393;28;20080;-89
2022/01/08 00:49:15;;;;;;;2.05;1.00;;;2.00;99.90;;;1.15;100.00;96672.72;4994515;28;20474;-88
2022/01/08 00:51:41;;;;;;;1.92;1.00;;;2.00;99.90;;;1.18;99.68;96659.69;4989520;28;20361;-89
2022/01/08 00:54:07;;;;;;;2.22;1.40;;;2.10;99.90;;;0.81;98.71;96603.00;5006695;28;20045;-88
2022/01/08 00:56:33;;;;;;;2.15;1.00;;;2.10;99.90;;;1.14;99.24;96653.66;4999128;28;20033;-88
2022/01/08 00:58:59;;;;;;;2.70;0.90;;;2.10;99.90;;;1.25;98.28;96653.53;4978940;28;20075;-88
2022/01/08 01:01:24;;;;;;;2.70;0.82;;;2.10;99.90;;;1.28;97.67;96657.84;4989627;28;20163;-87
2022/01/08 01:03:50;;;;;;;4.55;1.35;;;2.10;99.90;;;1.21;97.78;96644.06;4988969;28;20098;-88
2022/01/08 01:06:16;;;;;;;2.63;1.20;;;2.10;99.90;;;1.05;98.28;96619.16;4992618;28;20378;-87
2022/01/08 01:08:41;;;;;;;1.88;1.10;;;2.10;99.90;;;1.19;98.48;96630.25;4991387;28;20071;-88
2022/01/08 01:11:07;;;;;;;3.67;1.25;;;2.10;99.90;;;1.18;98.32;96633.69;4988590;28;20061;-88
2022/01/08 01:13:33;;;;;;;2.03;1.05;;;2.10;99.90;;;1.10;98.48;96625.16;4997066;28;20083;-87
2022/01/08 01:16:01;;;;;;;3.55;1.13;;;2.10;99.90;;;1.16;97.98;96609.50;4992315;28;20033;-88
2022/01/08 01:18:27;;;;;;;2.05;1.17;;;2.10;99.90;;;1.29;97.67;96615.38;5037776;22;20773;-44
2022/01/08 01:20:52;;;;;;;1.75;1.20;;;2.10;99.90;;;1.26;98.01;96618.03;5020633;28;20041;-45
2022/01/08 01:23:26;;;;;;;2.85;1.15;;;2.10;99.90;;;1.06;97.91;96588.00;5018003;28;20041;-42
2022/01/08 01:25:57;;;;;;;3.50;1.33;;;2.10;99.90;;;1.22;98.67;96609.44;5012577;28;20048;-43
2022/01/08 01:41:07;;;;;;;2.70;1.27;;;2.10;99.90;;;1.25;98.15;96596.38;5011507;28;20112;-44
2022/01/08 01:42:15;;;;;;;2.28;1.00;;;2.10;99.90;;;1.20;99.23;96563.56;5016848;28;20044;-40
2022/01/08 01:47:35;;;;;;;1.75;1.20;;;2.10;99.90;;;1.20;99.25;96543.63;5013684;28;20078;-38
2022/01/08 01:50:06;;;;;;;1.42;1.05;;;2.10;99.90;;;1.24;98.93;96547.03;5014757;28;20037;-42
2022/01/08 01:52:31;;;;;;;5.00;1.15;;;2.10;99.90;;;1.16;99.33;96539.38;5013455;28;20075;-38
2022/01/08 01:54:57;;;;;;;1.35;1.17;;;2.10;99.90;;;1.19;99.53;96530.69;5013886;28;20030;-37
2022/01/08 01:57:24;;;;;;;2.47;1.10;;;2.10;99.90;;;1.25;98.86;96528.84;5012600;28;20057;-41
2022/01/08 01:59:49;;;;;;;3.33;1.13;;;2.10;99.90;;;1.21;99.66;96514.19;4999294;28;20021;-41
2022/01/08 02:02:15;;;;;;;2.25;1.20;;;2.10;99.90;;;1.18;100.00;96496.06;5015004;28;20495;-40
2022/01/08 02:04:41;;;;;;;3.35;1.13;;;2.10;99.90;;;1.23;99.83;96506.38;5016355;28;20037;-40
2022/01/08 02:07:08;;;;;;;2.35;1.25;;;2.10;99.90;;;1.22;99.91;96500.34;5017292;28;20136;-45
2022/01/08 02:09:37;;;;;;;3.55;1.20;;;2.10;99.90;;;1.25;99.86;96483.84;5017930;28;20037;-42
2022/01/08 02:12:16;;;;;;;2.65;1.20;;;2.10;99.90;;;1.22;100.00;96476.09;5016497;28;20041;-36
2022/01/08 02:14:43;;;;;;;1.92;1.10;;;2.10;99.90;;;1.32;99.67;96477.69;5014901;28;22122;-39
2022/01/08 02:17:09;;;;;;;2.95;0.90;;;2.10;99.90;;;1.38;99.26;96477.56;5016078;28;20033;-42
2022/01/08 02:19:37;;;;;;;2.55;0.90;;;2.20;99.90;;;1.31;98.96;96466.44;5015895;28;20032;-40
2022/01/08 02:22:05;;;;;;;5.35;1.20;;;2.20;99.90;;;1.33;99.35;96464.66;5015134;28;20049;-39
2022/01/08 02:24:31;;;;;;;2.33;1.00;;;2.20;99.90;;;1.38;99.93;96464.56;5016500;28;20037;-38
2022/01/08 02:26:57;;;;;;;1.55;0.95;;;2.30;99.90;;;1.42;100.00;96452.41;5016692;28;20052;-38
2022/01/08 02:29:25;;;;;;;1.40;1.05;;;2.30;99.90;;;1.52;99.89;96448.78;5020476;28;20029;-41
2022/01/08 02:32:15;;;;;;;1.67;1.02;;;2.40;99.90;;;1.55;100.00;96446.13;5016216;28;20499;-42
2022/01/08 02:34:43;;;;;;;1.15;0.90;;;2.40;99.90;;;1.60;100.00;96453.84;5015895;28;20167;-37
2022/01/08 02:37:09;;;;;;;1.60;0.90;;;2.50;99.90;;;1.33;100.00;96394.53;5017682;28;20599;-38
2022/01/08 02:39:41;;;;;;;1.45;0.88;;;2.50;99.90;;;1.62;100.00;96437.34;5013758;28;20159;-38
2022/01/08 02:42:12;;;;;;;2.75;1.20;;;2.50;99.90;;;1.62;100.00;96434.75;5019577;28;20631;-41
2022/01/08 02:44:37;;;;;;;1.98;1.00;;;2.50;99.90;;;1.60;100.00;96422.66;5017984;28;20084;-38
2022/01/08 02:47:03;;;;;;;2.20;0.90;;;2.50;99.90;;;1.60;100.00;96420.94;5020658;28;20473;-41
2022/01/08 02:49:34;;;;;;;1.92;0.98;;;2.50;99.90;;;1.67;100.00;96416.47;5017134;28;20029;-41
2022/01/08 02:52:00;;;;;;;3.53;0.85;;;2.50;99.90;;;1.67;100.00;96416.47;5018044;28;20052;-38
2022/01/08 02:54:26;;;;;;;3.00;1.10;;;2.60;99.90;;;1.60;100.00;96389.75;5017229;28;20464;-40
2022/01/08 02:56:51;;;;;;;1.30;0.90;;;2.60;99.90;;;1.73;100.00;96407.72;5015674;28;20037;-41
2022/01/08 02:59:18;;;;;;;1.35;0.80;;;2.60;99.90;;;1.79;100.00;96394.59;5016833;28;20061;-39
2022/01/08 03:01:45;;;;;;;1.83;0.80;;;2.60;99.90;;;1.79;100.00;96392.00;5018177;28;20483;-41
2022/01/08 03:04:11;;;;;;;3.78;1.00;;;2.60;99.90;;;1.93;100.00;96390.00;5019544;28;20037;-44
2022/01/08 03:06:37;;;;;;;1.52;0.85;;;2.70;99.90;;;1.93;100.00;96389.16;5022001;28;20033;-39
2022/01/08 03:09:04;;;;;;;2.10;1.00;;;2.80;99.90;;;1.75;100.00;96362.59;5026196;28;20546;-39
2022/01/08 03:11:30;;;;;;;1.77;0.82;;;2.80;99.90;;;1.91;100.00;96383.97;5023894;28;20108;-45
2022/01/08 03:13:56;;;;;;;4.25;1.15;;;2.70;99.90;;;1.90;100.00;96380.53;5016440;28;20036;-38
2022/01/08 03:16:22;;;;;;;2.15;1.05;;;2.80;99.90;;;1.91;100.00;96386.56;5017052;28;20325;-43
2022/01/08 03:18:49;;;;;;;2.53;1.10;;;2.70;99.90;;;1.91;100.00;96374.44;5014426;28;20083;-41
2022/01/08 03:21:18;;;;;;;2.40;1.00;;;2.80;99.90;;;1.97;100.00;96386.44;5018651;28;20120;-40
2022/01/08 03:23:50;;;;;;;3.28;1.00;;;2.80;99.90;;;1.95;100.00;96370.03;5015140;28;20037;-41
2022/01/08 03:26:19;;;;;;;2.90;1.02;;;2.80;99.90;;;1.94;100.00;96375.25;5013939;28;20040;-43
2022/01/08 03:28:45;;;;;;;1.83;1.10;;;2.80;99.90;;;1.93;100.00;96364.00;5000952;28;20051;-36
2022/01/08 03:31:13;;;;;;;2.63;1.23;;;2.80;99.90;;;1.82;100.00;96358.16;4998803;28;20037;-38
2022/01/08 03:33:39;;;;;;;2.08;1.40;;;2.70;99.90;;;1.79;100.00;96346.06;5015006;28;20272;-38
2022/01/08 03:36:06;;;;;;;2.70;1.30;;;2.70;99.90;;;1.91;100.00;96358.81;5014563;28;20030;-38
2022/01/08 03:38:32;;;;;;;2.92;1.20;;;2.70;99.90;;;1.93;100.00;96351.00;5014528;28;20037;-37
2022/01/08 03:40:58;;;;;;;2.47;1.40;;;2.70;99.90;;;1.74;100.00;96363.47;5020992;28;20085;-40
2022/01/08 03:43:24;;;;;;;4.75;1.65;;;2.60;99.90;;;1.63;100.00;96350.69;5015031;28;20038;-37
2022/01/08 03:45:51;;;;;;;1.70;1.15;;;2.60;99.90;;;1.72;100.00;96357.47;5015532;28;20128;-40
2022/01/08 03:48:27;;;;;;;2.38;1.50;;;2.50;99.90;;;1.61;100.00;96352.47;5001652;28;20029;-43
2022/01/08 03:50:54;;;;;;;2.13;1.30;;;2.50;99.90;;;1.55;100.00;96359.53;5018662;28;20053;-39
2022/01/08 03:53:19;;;;;;;2.47;1.35;;;2.40;99.90;;;1.56;100.00;96346.50;5013686;28;20319;-41
2022/01/08 03:55:45;;;;;;;4.15;1.67;;;2.50;99.90;;;1.56;100.00;96354.28;5018243;28;20663;-43
2022/01/08 03:58:11;;;;;;;4.95;1.70;;;2.50;99.90;;;1.58;100.00;96355.13;5014191;28;20117;-45
2022/01/08 04:00:36;;;;;;;2.90;1.60;;;2.40;99.90;;;1.55;100.00;96350.00;5011264;28;20581;-38
2022/01/08 04:03:02;;;;;;;2.45;1.73;;;2.40;99.90;;;1.58;100.00;96352.53;5016622;28;20033;-40
2022/01/08 04:05:28;;;;;;;2.70;1.52;;;2.40;99.90;;;1.62;100.00;96350.75;5011551;28;20038;-43
2022/01/08 04:07:54;;;;;;;2.20;1.70;;;2.40;99.90;;;1.53;100.00;96342.22;5015076;28;20045;-42
2022/01/08 04:10:20;;;;;;;1.88;1.67;;;2.40;99.90;;;1.55;100.00;96342.19;5021776;28;20037;-39
2022/01/08 04:12:50;;;;;;;2.70;1.77;;;2.40;99.90;;;1.50;100.00;96344.00;5018270;28;20115;-40
2022/01/08 04:15:30;;;;;;;2.70;1.52;;;2.40;99.90;;;1.53;100.00;96343.97;5015237;28;20033;-36
2022/01/08 04:17:56;;;;;;;2.70;1.73;;;2.40;99.90;;;1.46;100.00;96351.00;5016603;28;20028;-37
2022/01/08 04:20:23;;;;;;;3.90;2.00;;;2.30;99.90;;;1.48;100.00;96354.44;5015891;28;20021;-39
2022/01/08 04:22:50;;;;;;;3.17;1.70;;;2.30;99.90;;;1.48;100.00;96341.44;5015651;28;20479;-37
2022/01/08 04:25:20;;;;;;;2.25;1.50;;;2.30;99.90;;;1.50;100.00;96338.81;5011717;28;20029;-40
2022/01/08 04:27:45;;;;;;;1.88;1.52;;;2.30;99.90;;;1.53;100.00;96346.56;5015741;28;20539;-40
2022/01/08 04:30:11;;;;;;;3.70;1.80;;;2.40;99.90;;;1.50;100.00;96355.25;5016095;28;20041;-38
2022/01/08 04:32:37;;;;;;;4.68;1.88;;;2.40;99.90;;;1.52;100.00;96358.69;5013300;28;20041;-38
2022/01/08 04:35:04;;;;;;;2.40;1.90;;;2.40;99.90;;;1.51;100.00;96353.53;5013821;28;20030;-36
2022/01/08 04:37:30;;;;;;;1.85;1.70;;;2.40;99.90;;;1.49;100.00;96369.16;5015056;28;20553;-39
2022/01/08 04:39:55;;;;;;;2.75;1.73;;;2.40;99.90;;;1.58;100.00;96372.44;5013638;28;20056;-37
2022/01/08 04:42:21;;;;;;;3.30;1.75;;;2.40;99.90;;;1.61;100.00;96381.03;5012731;28;20716;-45
2022/01/08 04:44:47;;;;;;;5.05;1.80;;;2.40;99.90;;;1.49;100.00;96374.34;5016395;28;20041;-41
2022/01/08 04:47:14;;;;;;;2.72;1.60;;;2.40;99.90;;;1.56;100.00;96385.47;5013566;28;20029;-38
2022/01/08 04:49:39;;;;;;;2.80;1.70;;;2.40;99.90;;;1.53;100.00;96388.16;5015382;28;22445;-39
2022/01/08 04:52:06;;;;;;;2.35;1.50;;;2.40;99.90;;;1.47;100.00;96390.81;5013380;28;20581;-39
2022/01/08 04:54:32;;;;;;;1.70;1.40;;;2.30;99.90;;;1.42;100.00;96384.84;5014021;28;20475;-35
2022/01/08 04:56:57;;;;;;;2.63;1.42;;;2.30;99.90;;;1.39;100.00;96406.56;5012477;28;20072;-38
2022/01/08 04:59:23;;;;;;;2.47;1.42;;;2.30;99.90;;;1.38;100.00;96416.97;5015847;28;20049;-41
2022/01/08 05:01:49;;;;;;;3.83;1.25;;;2.20;99.90;;;1.31;100.00;96404.09;5014420;28;20118;-41
2022/01/08 05:04:15;;;;;;;4.15;1.17;;;2.20;99.90;;;1.25;100.00;96413.72;5016299;28;20072;-40
2022/01/08 05:06:41;;;;;;;1.80;1.20;;;2.20;99.90;;;1.20;100.00;96420.72;5014510;28;20037;-40
2022/01/08 05:09:06;;;;;;;3.22;1.40;;;2.10;99.90;;;1.11;100.00;96421.72;5013618;28;20300;-40
2022/01/08 05:11:32;;;;;;;2.50;1.23;;;2.00;99.90;;;1.11;100.00;96427.78;5013643;28;20523;-38
2022/01/08 05:13:58;;;;;;;1.88;1.10;;;2.00;99.90;;;1.00;100.00;96421.88;5014384;28;20491;-41
2022/01/08 05:16:28;;;;;;;3.35;1.20;;;1.90;99.90;;;0.99;100.00;96429.69;5014091;28;20698;-39
2022/01/08 05:18:54;;;;;;;2.08;1.10;;;1.90;99.90;;;0.88;100.00;96440.22;5012134;28;20057;-41
2022/01/08 05:21:25;;;;;;;1.85;1.20;;;1.80;99.90;;;0.86;100.00;96440.28;5014089;28;20037;-41
2022/01/08 05:23:56;;;;;;;1.42;1.13;;;1.80;99.90;;;0.86;100.00;96460.16;5014588;28;20033;-37
2022/01/08 05:26:25;;;;;;;1.43;1.20;;;1.80;99.90;;;0.72;100.00;96462.97;5012013;28;20033;-43
2022/01/08 05:28:55;;;;;;;1.73;1.13;;;1.70;99.90;;;0.72;100.00;96470.75;5015440;28;20665;-38
2022/01/08 05:31:23;;;;;;;1.75;1.20;;;1.70;99.90;;;0.68;100.00;96475.13;5012753;28;20044;-38
2022/01/08 05:33:50;;;;;;;3.58;1.20;;;1.60;99.90;;;0.66;100.00;96476.84;5014565;28;20080;-34
2022/01/08 05:36:16;;;;;;;1.30;1.00;;;1.60;99.90;;;0.67;100.00;96481.16;5014162;28;20030;-40
2022/01/08 05:38:42;;;;;;;3.33;1.40;;;1.60;99.90;;;0.67;100.00;96485.50;5020089;28;20418;-42
2022/01/08 05:41:08;;;;;;;3.22;1.35;;;1.60;99.90;;;0.71;100.00;96488.03;5020178;28;20053;-37
2022/01/08 05:43:34;;;;;;;1.80;0.98;;;1.60;99.90;;;0.68;100.00;96502.78;5006894;28;20506;-37
2022/01/08 05:45:59;;;;;;;1.70;1.20;;;1.60;99.90;;;0.66;100.00;96520.09;5022323;28;20076;-36
2022/01/08 05:48:26;;;;;;;1.83;1.00;;;1.60;99.90;;;0.72;100.00;96514.88;5021102;28;20037;-35
2022/01/08 05:50:52;;;;;;;1.20;0.82;;;1.60;99.90;;;0.69;100.00;96528.72;5024847;28;20029;-38
2022/01/08 05:53:19;;;;;;;0.70;0.57;;;1.60;99.90;;;0.75;100.00;96526.06;5019092;28;20060;-40
2022/01/08 05:55:46;;;;;;;1.73;0.70;;;1.70;99.90;;;0.76;100.00;96526.91;5019285;28;20022;-41
2022/01/08 05:58:12;;;;;;;0.98;0.70;;;1.70;99.90;;;0.76;100.00;96552.88;5021467;28;20033;-41
2022/01/08 06:00:37;;;;;;;1.13;0.47;;;1.70;99.90;;;0.75;100.00;96545.94;5017333;28;20103;-39
2022/01/08 06:03:03;;;;;;;0.85;0.52;;;1.70;99.90;;;0.72;100.00;96554.66;5017270;28;20040;-43
2022/01/08 06:05:29;;;;;;;0.93;0.50;;;1.70;99.90;;;0.76;100.00;96573.63;5019851;28;20147;-41
2022/01/08 06:07:55;;;;;;;0.57;0.40;;;1.70;99.90;;;0.68;100.00;96588.41;5018960;28;20254;-40
2022/01/08 06:10:21;;;;;;;0.50;0.50;;;1.60;99.90;;;0.71;100.00;96573.66;5024670;28;20579;-44
2022/01/08 06:12:48;;;;;;;1.85;0.57;;;1.60;99.90;;;0.56;100.00;96586.84;5021225;28;20030;-39
2022/01/08 06:15:14;;;;;;;0.45;0.40;;;1.60;99.90;;;0.53;100.00;96605.88;5019043;28;20041;-42
2022/01/08 06:17:40;;;;;;;1.92;0.70;;;1.50;99.90;;;0.57;100.00;96623.16;5019951;28;20052;-42
2022/01/08 06:20:07;;;;;;;0.73;0.50;;;1.50;99.90;;;0.51;100.00;96618.00;5021792;28;20025;-44
2022/01/08 06:22:33;;;;;;;0.50;0.50;;;1.50;99.90;;;0.49;100.00;96632.72;5018414;28;20094;-40
2022/01/08 06:24:59;;;;;;;1.05;0.70;;;1.50;99.90;;;0.45;100.00;96646.59;5017964;28;20037;-42
2022/01/08 06:27:24;;;;;;;0.88;0.50;;;1.40;99.90;;;0.47;100.00;96644.84;5021253;28;20033;-40
2022/01/08 06:29:50;;;;;;;1.23;0.50;;;1.40;99.90;;;0.32;100.00;96645.88;5021934;28;20044;-43
2022/01/08 06:32:17;;;;;;;1.30;0.50;;;1.40;99.90;;;0.32;100.00;96666.63;5020446;28;20029;-45
2022/01/08 06:34:43;;;;;;;1.33;0.60;;;1.30;99.90;;;0.26;100.00;96673.56;5016559;28;20025;-44
2022/01/08 06:37:09;;;;;;;2.50;0.60;;;1.30;99.90;;;0.16;100.00;96671.06;5018665;28;20029;-43
2022/01/08 06:39:35;;;;;;;2.85;0.73;;;1.30;99.90;;;0.27;100.00;96677.88;5021506;28;20037;-44
2022/01/08 06:42:02;;;;;;;1.58;0.70;;;1.30;99.90;;;0.27;100.00;96690.84;5020534;28;20021;-41
2022/01/08 06:44:28;;;;;;;1.23;0.60;;;1.30;99.90;;;0.30;100.00;96689.06;5007225;28;20387;-39
2022/01/08 06:46:54;;;;;;;1.25;0.80;;;1.30;99.90;;;0.31;100.00;96702.94;5019206;28;20075;-41
2022/01/08 06:49:20;;;;;;;0.85;0.60;;;1.20;99.90;;;0.26;100.00;96718.50;5018791;28;20419;-42
2022/01/08 06:51:46;;;;;;;1.20;0.75;;;1.30;99.90;;;0.25;100.00;96729.78;5017185;28;20056;-38
2022/01/08 06:54:11;;;;;;;2.33;0.80;;;1.30;99.90;;;0.24;100.00;96735.81;5016377;28;20037;-39
2022/01/08 06:56:37;;;;;;;0.93;0.75;;;1.30;99.90;;;0.22;100.00;96740.16;5023337;28;20026;-43
2022/01/08 06:59:03;;;;;;;1.70;0.63;;;1.20;99.90;;;0.19;100.00;96743.63;5026879;28;20111;-41
2022/01/08 07:01:29;;;;;;;1.17;0.88;;;1.20;99.90;;;0.20;100.00;96752.28;5023910;28;20476;-43
2022/01/08 07:03:57;;;;;;;0.80;0.65;;;1.20;99.90;;;0.19;100.00;96768.69;5023918;28;20048;-41
2022/01/08 07:06:23;;;;;;;1.58;0.93;;;1.20;99.90;;;0.17;100.00;96776.47;5025247;28;20071;-39
2022/01/08 07:08:49;;;;;;;2.28;0.73;;;1.20;99.90;;;0.19;100.00;96786.84;5023422;28;20412;-35
2022/01/08 07:11:16;;;;;;;2.60;0.93;;;1.20;99.90;;;0.18;100.00;96801.56;5016883;28;20029;-41
2022/01/08 07:13:42;;;;;;;2.35;0.98;;;1.20;99.90;;;0.17;100.00;96809.34;5016752;28;20035;-36
2022/01/08 07:16:08;;;;;;;2.25;0.80;;;1.20;99.90;;;0.17;100.00;96828.34;5015838;28;20022;-42
2022/01/08 07:18:34;;;;;;;1.20;0.90;;;1.20;99.90;;;0.17;100.00;96837.88;5016718;28;20037;-35
2022/01/08 07:21:00;;;;;;;2.72;1.00;;;1.20;99.90;;;0.13;100.00;96844.78;5014248;28;20561;-38
2022/01/08 07:23:26;;;;;;;1.45;1.13;;;1.20;99.90;;;0.09;100.00;96850.00;5021194;28;20033;-36
2022/01/08 07:25:51;;;;;;;3.92;1.40;;;1.10;99.90;;;0.06;100.00;96860.41;5023109;28;20429;-38
2022/01/08 07:28:17;;;;;;;1.90;1.40;;;1.10;99.90;;;0.04;100.00;96869.91;5024795;28;20037;-44
2022/01/08 07:30:44;;;;;;;2.85;1.42;;;1.10;99.90;;;0.05;100.00;96877.66;5019992;28;20044;-37
2022/01/08 07:33:10;;;;;;;1.85;1.35;;;1.10;99.90;;;0.07;100.00;96877.66;5024891;28;20033;-41
2022/01/08 07:35:36;;;;;;;2.40;1.40;;;1.10;99.90;;;0.04;100.00;96883.72;5050780;22;20032;-38
2022/01/08 07:38:02;;;;;;;2.50;1.98;;;1.10;99.90;;;0.15;100.00;96897.50;5038028;28;20037;-39
2022/01/08 07:40:28;;;;;;;2.75;1.60;;;1.10;99.90;;;0.12;100.00;96894.06;5039768;28;20034;-34
2022/01/08 07:42:54;;;;;;;3.17;1.77;;;1.10;99.90;;;0.10;100.00;96901.00;5042037;28;20063;-37
2022/01/08 07:45:19;;;;;;;5.40;2.13;;;1.10;99.90;;;0.09;100.00;96910.50;5039388;28;20044;-37
2022/01/08 07:47:46;;;;;;;3.85;2.15;;;1.10;99.90;;;0.16;100.00;96912.22;5041094;28;20033;-36
2022/01/08 07:50:13;;;;;;;5.85;2.08;;;1.10;99.90;;;0.15;100.00;96922.59;5039694;28;20060;-35
2022/01/08 07:52:39;;;;;;;4.07;1.85;;;1.10;99.90;;;0.10;100.00;96908.78;5038101;28;20037;-36
2022/01/08 07:55:05;;;;;;;3.70;2.00;;;1.10;99.90;;;0.13;100.00;96925.19;5042081;28;20029;-36
2022/01/08 07:57:31;;;;;;;3.90;1.75;;;1.10;99.90;;;0.14;100.00;96933.81;5041244;28;20057;-36
2022/01/08 07:59:57;;;;;;;3.17;2.05;;;1.10;99.90;;;0.22;100.00;96931.22;5042224;28;20031;-38
2022/01/08 08:02:23;;;;;;;4.53;2.10;;;1.20;99.90;;;0.26;100.00;96944.16;5038846;28;20077;-35
2022/01/08 08:04:48;;;;;;;2.92;1.52;;;1.20;99.90;;;0.22;100.00;96944.19;5040499;28;20455;-37
2022/01/08 08:07:25;;;;;;;1.83;1.52;;;1.30;99.90;;;0.28;100.00;96949.34;5040290;28;20087;-36
2022/01/08 08:09:53;;;;;;;1.75;1.40;;;1.30;99.90;;;0.26;100.00;96972.69;5039510;28;20052;-35
2022/01/08 08:12:19;;;;;;;4.25;1.70;;;1.30;99.90;;;0.27;100.00;96977.00;5041204;28;20118;-38
2022/01/08 08:14:45;;;;;;;5.20;1.58;;;1.20;99.90;;;0.25;100.00;96975.28;5039973;28;20040;-37
2022/01/08 08:17:10;;;;;;;2.65;1.63;;;1.20;99.90;;;0.23;100.00;96979.59;5035512;28;20040;-35
2022/01/08 08:19:36;;;;;;;4.55;1.60;;;1.20;99.90;;;0.25;100.00;96986.53;5033942;28;20620;-34
2022/01/08 08:22:02;;;;;;;5.80;1.80;;;1.20;99.90;;;0.27;100.00;96997.75;5038885;28;20028;-36
2022/01/08 08:24:27;;;;;;;8.05;1.90;;;1.20;99.90;;;0.30;100.00;96989.94;5037579;28;20051;-33
2022/01/08 08:26:53;;;;;;;5.55;2.00;;;1.30;99.90;;;0.31;100.00;96986.50;5038436;28;20044;-38
2022/01/08 08:29:19;;;;;;;2.63;1.77;;;1.30;99.90;;;0.24;100.00;96971.81;5043553;28;20040;-36
2022/01/08 08:31:44;;;;;;;3.95;1.63;;;1.30;99.90;;;0.42;100.00;97001.19;5040688;28;20338;-36
2022/01/08 08:34:10;;;;;;;3.78;1.60;;;1.40;99.90;;;0.52;100.00;97003.75;5045016;28;20090;-35
2022/01/08 08:36:36;;;;;;;2.70;1.25;;;1.40;99.90;;;0.56;100.00;97008.03;5039473;28;20029;-35
2022/01/08 08:39:02;;;;;;;4.13;1.27;;;1.50;99.90;;;0.59;100.00;97006.28;5043550;28;20039;-35
2022/01/08 08:41:30;;;;;;;3.10;0.95;;;1.50;99.90;;;0.66;100.00;97011.44;5042591;28;20029;-36
2022/01/08 08:43:57;;;;;;;3.03;1.20;;;1.60;99.90;;;0.62;100.00;97019.25;5042913;28;20461;-35
2022/01/08 08:46:24;;;;;;;4.10;1.02;;;1.60;99.90;;;0.62;100.00;97022.72;5043315;28;20502;-36
2022/01/08 08:48:50;;;;;;;2.42;0.90;;;1.60;99.90;;;0.68;100.00;97027.91;5045166;28;20115;-35
2022/01/08 08:51:15;;;;;;;3.50;1.30;;;1.60;99.90;;;0.71;100.00;97038.25;5043704;28;20762;-37
2022/01/08 08:53:41;;;;;;;2.30;1.20;;;1.70;99.90;;;0.75;100.00;97042.59;5043501;28;20037;-36
2022/01/08 08:56:07;;;;;;;3.92;1.08;;;1.70;99.90;;;0.82;100.00;97051.19;5042025;28;20078;-37
2022/01/08 08:58:33;;;;;;;6.57;0.90;;;1.80;99.90;;;0.87;100.00;97049.44;5043679;28;20095;-36
2022/01/08 09:00:59;;;;;;;2.08;0.93;;;1.80;99.90;;;0.94;100.00;97053.72;5045594;28;20053;-37
2022/01/08 09:03:24;;;;;;;2.78;1.15;;;1.90;99.90;;;1.06;100.00;97068.41;5044922;28;20560;-36
2022/01/08 09:05:50;;;;;;;2.17;0.95;;;2.00;99.90;;;1.13;100.00;97053.63;5042350;28;20037;-37
2022/01/08 09:08:16;;;;;;;2.33;1.08;;;2.00;99.90;;;1.18;100.00;97067.47;5042116;28;20505;-35
2022/01/08 09:10:42;;;;;;;2.83;1.05;;;2.10;99.90;;;1.13;100.00;97074.41;5043041;28;20056;-35
2022/01/08 09:13:08;;;;;;;4.97;1.33;;;2.10;99.90;;;1.04;100.00;97061.47;5043390;28;20021;-36
2022/01/08 09:15:37;;;;;;;4.20;1.30;;;2.00;99.90;;;1.08;100.00;97076.19;5024967;28;20028;-35
2022/01/08 09:18:03;;;;;;;3.00;1.30;;;2.00;99.90;;;1.03;100.00;97073.59;5041310;28;20114;-36
2022/01/08 09:20:29;;;;;;;2.35;1.20;;;2.00;99.90;;;1.05;100.00;97066.66;5042729;28;20032;-37
2022/01/08 09:22:56;;;;;;;3.08;1.20;;;2.00;99.90;;;1.14;100.00;97076.16;5042592;28;20021;-34
2022/01/08 09:25:22;;;;;;;4.28;1.40;;;2.10;99.90;;;1.16;100.00;97083.94;5038994;28;20028;-38
2022/01/08 09:27:48;;;;;;;1.95;0.95;;;2.10;99.90;;;1.24;100.00;97088.22;5038029;28;20020;-36
2022/01/08 09:30:14;;;;;;;2.58;1.13;;;2.20;99.90;;;1.28;100.00;97082.13;5038701;28;20033;-35
2022/01/08 09:32:43;;;;;;;3.30;1.13;;;2.20;99.90;;;1.33;100.00;97080.38;5037994;28;20215;-36
2022/01/08 09:35:12;;;;;;;3.03;1.20;;;2.30;99.90;;;1.41;100.00;97084.69;5038047;28;20395;-36
2022/01/08 09:37:39;;;;;;;4.53;1.00;;;2.30;99.90;;;1.40;100.00;97082.94;5028422;28;20231;-34
2022/01/08 09:40:12;;;;;;;5.22;1.33;;;2.30;99.90;;;1.30;100.00;97083.00;5043444;28;20398;-34
2022/01/08 09:42:41;;;;;;;2.22;1.10;;;2.20;99.90;;;1.26;100.00;97085.63;5040044;28;20132;-36
2022/01/08 09:45:08;;;;;;;3.80;1.30;;;2.20;99.90;;;1.28;100.00;97089.09;5041013;28;20163;-35
2022/01/08 09:47:35;;;;;;;4.03;1.35;;;2.20;99.90;;;1.27;100.00;97088.19;5042174;28;20039;-36
2022/01/08 09:50:01;;;;;;;1.90;1.20;;;2.30;99.90;;;1.21;100.00;97074.41;5039210;28;20029;-39
2022/01/08 09:52:30;;;;;;;2.75;1.40;;;2.30;99.90;;;1.34;100.00;97102.88;5040226;28;20033;-38
2022/01/08 09:54:55;;;;;;;2.35;1.20;;;2.30;99.90;;;1.32;100.00;97095.97;5039700;28;20360;-37
2022/01/08 09:57:21;;;;;;;3.35;1.30;;;2.30;99.90;;;1.28;100.00;97105.53;5040919;28;20052;-36
2022/01/08 09:59:47;;;;;;;3.72;1.45;;;2.20;99.90;;;1.21;100.00;97106.44;5026154;28;20040;-37
2022/01/08 10:02:13;;;;;;;2.38;1.20;;;2.10;99.90;;;1.33;100.00;97110.72;5041303;28;20021;-36
2022/01/08 10:04:40;;;;;;;3.20;1.35;;;2.20;99.90;;;1.40;100.00;97109.81;5042130;28;20033;-37
2022/01/08 10:07:23;;;;;;;4.20;1.20;;;2.30;99.90;;;1.38;100.00;97114.13;5043809;28;20025;-36
2022/01/08 10:09:57;;;;;;;5.00;1.60;;;2.40;99.90;;;1.49;100.00;97107.16;5042665;28;20606;-35
2022/01/08 10:13:00;;;;;;;2.65;1.42;;;2.40;99.90;;;1.53;100.00;97102.81;5041278;28;20033;-37
2022/01/08 10:18:25;;;;;;;1.65;1.02;;;2.40;99.90;;;1.43;100.00;97114.97;5041104;28;20186;-35
2022/01/08 10:20:52;;;;;;;4.35;1.20;;;2.30;99.90;;;1.43;100.00;97114.97;5041822;28;20064;-36
2022/01/08 10:23:21;;;;;;;4.80;1.35;;;2.30;99.90;;;1.38;100.00;97115.88;5040194;28;20422;-37
2022/01/08 10:26:06;;;;;;;2.95;1.45;;;2.30;99.90;;;1.51;100.00;97117.53;5043448;28;20526;-35
2022/01/08 10:28:41;;;;;;;3.75;1.30;;;2.40;99.90;;;1.67;98.93;97118.28;5044096;28;20028;-34
2022/01/08 10:31:32;;;;;;;3.47;1.63;;;2.60;99.90;;;1.83;97.13;97130.34;5046984;28;20029;-37
2022/01/08 10:34:01;;;;;;;4.35;1.65;;;2.70;99.90;;;1.90;98.80;97120.75;5045393;28;20037;-36
2022/01/08 10:36:56;;;;;;;4.00;1.42;;;2.80;99.90;;;1.96;96.24;97110.31;5040951;28;20510;-33
2022/01/08 10:39:34;;;;;;;3.78;1.30;;;2.90;99.90;;;2.07;96.60;97120.63;5043531;28;20099;-34
2022/01/08 10:42:13;;;;;;;1.88;0.90;;;3.00;99.90;;;2.21;97.09;97117.94;5043397;28;20029;-34
2022/01/08 10:44:40;;;;;;;4.32;1.13;;;3.10;99.90;;;2.28;98.55;97122.22;5044766;28;20120;-38